sensor_id;sensor_type;location;lat;lon;timestamp;P1;durP1;ratioP1;P2;durP2;ratioP2
36449;SDS011;22475;51.390;7.180;2023-11-21T00:00:23;9.43;;;4.47;;
36449;SDS011;22475;51.390;7.180;2023-11-21T00:02:50;7.03;;;4.72;;
36449;SDS011;22475;51.390;7.180;2023-11-21T00:05:16;6.68;;;4.53;;
36449;SDS011;22475;51.390;7.180;2023-11-21T00:07:45;7.43;;;3.78;;
36449;SDS011;22475;51.390;7.180;2023-11-21T00:10:11;11.55;;;6.03;;
36449;SDS011;22475;51.390;7.180;2023-11-21T00:12:41;12.60;;;4.85;;
36449;SDS011;22475;51.390;7.180;2023-11-21T00:15:08;14.70;;;4.65;;
36449;SDS011;22475;51.390;7.180;2023-11-21T00:17:36;7.30;;;4.78;;
36449;SDS011;22475;51.390;7.180;2023-11-21T00:20:04;13.43;;;4.60;;
36449;SDS011;22475;51.390;7.180;2023-11-21T00:22:32;8.80;;;4.78;;
36449;SDS011;22475;51.390;7.180;2023-11-21T00:25:00;9.13;;;6.60;;
36449;SDS011;22475;51.390;7.180;2023-11-21T00:27:28;7.85;;;5.18;;
36449;SDS011;22475;51.390;7.180;2023-11-21T00:29:55;13.45;;;5.43;;
36449;SDS011;22475;51.390;7.180;2023-11-21T00:32:22;16.70;;;5.00;;
36449;SDS011;22475;51.390;7.180;2023-11-21T00:34:49;7.38;;;5.25;;
36449;SDS011;22475;51.390;7.180;2023-11-21T00:37:16;9.43;;;4.53;;
36449;SDS011;22475;51.390;7.180;2023-11-21T00:39:42;5.03;;;4.60;;
36449;SDS011;22475;51.390;7.180;2023-11-21T00:42:11;14.85;;;5.20;;
36449;SDS011;22475;51.390;7.180;2023-11-21T00:44:38;7.05;;;4.38;;
36449;SDS011;22475;51.390;7.180;2023-11-21T00:47:05;12.48;;;4.47;;
36449;SDS011;22475;51.390;7.180;2023-11-21T00:49:33;14.00;;;4.63;;
36449;SDS011;22475;51.390;7.180;2023-11-21T00:51:59;8.95;;;4.82;;
36449;SDS011;22475;51.390;7.180;2023-11-21T00:54:27;10.52;;;5.32;;
36449;SDS011;22475;51.390;7.180;2023-11-21T00:56:54;9.30;;;4.82;;
36449;SDS011;22475;51.390;7.180;2023-11-21T00:59:22;10.38;;;5.50;;
36449;SDS011;22475;51.390;7.180;2023-11-21T01:01:49;6.35;;;5.18;;
36449;SDS011;22475;51.390;7.180;2023-11-21T01:04:16;9.13;;;5.63;;
36449;SDS011;22475;51.390;7.180;2023-11-21T01:06:43;12.00;;;5.15;;
36449;SDS011;22475;51.390;7.180;2023-11-21T01:09:10;12.77;;;5.80;;
36449;SDS011;22475;51.390;7.180;2023-11-21T01:11:37;9.32;;;5.13;;
36449;SDS011;22475;51.390;7.180;2023-11-21T01:14:04;7.28;;;5.20;;
36449;SDS011;22475;51.390;7.180;2023-11-21T01:16:33;18.02;;;6.25;;
36449;SDS011;22475;51.390;7.180;2023-11-21T01:18:59;18.25;;;6.65;;
36449;SDS011;22475;51.390;7.180;2023-11-21T01:21:26;7.00;;;5.13;;
36449;SDS011;22475;51.390;7.180;2023-11-21T01:23:54;9.20;;;6.03;;
36449;SDS011;22475;51.390;7.180;2023-11-21T01:26:21;8.20;;;4.82;;
36449;SDS011;22475;51.390;7.180;2023-11-21T01:28:48;10.70;;;5.72;;
36449;SDS011;22475;51.390;7.180;2023-11-21T01:31:15;8.88;;;5.95;;
36449;SDS011;22475;51.390;7.180;2023-11-21T01:33:43;11.32;;;6.05;;
36449;SDS011;22475;51.390;7.180;2023-11-21T01:36:10;6.45;;;5.72;;
36449;SDS011;22475;51.390;7.180;2023-11-21T01:38:36;10.82;;;5.60;;
36449;SDS011;22475;51.390;7.180;2023-11-21T01:41:02;18.02;;;6.78;;
36449;SDS011;22475;51.390;7.180;2023-11-21T01:43:29;13.65;;;6.57;;
36449;SDS011;22475;51.390;7.180;2023-11-21T01:45:57;10.15;;;5.30;;
36449;SDS011;22475;51.390;7.180;2023-11-21T01:48:24;11.68;;;5.65;;
36449;SDS011;22475;51.390;7.180;2023-11-21T01:50:53;8.82;;;5.78;;
36449;SDS011;22475;51.390;7.180;2023-11-21T01:53:20;9.20;;;5.43;;
36449;SDS011;22475;51.390;7.180;2023-11-21T01:55:50;9.95;;;6.05;;
36449;SDS011;22475;51.390;7.180;2023-11-21T01:58:18;10.63;;;5.57;;
36449;SDS011;22475;51.390;7.180;2023-11-21T02:00:46;15.82;;;5.75;;
36449;SDS011;22475;51.390;7.180;2023-11-21T02:03:15;8.95;;;5.22;;
36449;SDS011;22475;51.390;7.180;2023-11-21T02:05:42;10.68;;;6.03;;
36449;SDS011;22475;51.390;7.180;2023-11-21T02:08:10;15.07;;;7.07;;
36449;SDS011;22475;51.390;7.180;2023-11-21T02:10:37;19.40;;;6.18;;
36449;SDS011;22475;51.390;7.180;2023-11-21T02:13:04;11.30;;;6.00;;
36449;SDS011;22475;51.390;7.180;2023-11-21T02:15:31;15.63;;;6.05;;
36449;SDS011;22475;51.390;7.180;2023-11-21T02:17:58;14.65;;;5.63;;
36449;SDS011;22475;51.390;7.180;2023-11-21T02:20:25;7.32;;;5.35;;
36449;SDS011;22475;51.390;7.180;2023-11-21T02:22:55;12.02;;;5.95;;
36449;SDS011;22475;51.390;7.180;2023-11-21T02:25:24;14.07;;;6.53;;
36449;SDS011;22475;51.390;7.180;2023-11-21T02:27:51;17.67;;;5.22;;
36449;SDS011;22475;51.390;7.180;2023-11-21T02:30:19;16.25;;;5.13;;
36449;SDS011;22475;51.390;7.180;2023-11-21T02:32:46;12.10;;;6.10;;
36449;SDS011;22475;51.390;7.180;2023-11-21T02:35:13;13.95;;;6.00;;
36449;SDS011;22475;51.390;7.180;2023-11-21T02:37:40;13.52;;;5.55;;
36449;SDS011;22475;51.390;7.180;2023-11-21T02:40:09;7.82;;;5.13;;
36449;SDS011;22475;51.390;7.180;2023-11-21T02:42:37;10.38;;;5.38;;
36449;SDS011;22475;51.390;7.180;2023-11-21T02:45:05;9.50;;;4.93;;
36449;SDS011;22475;51.390;7.180;2023-11-21T02:47:33;11.35;;;6.72;;
36449;SDS011;22475;51.390;7.180;2023-11-21T02:50:00;9.90;;;5.32;;
36449;SDS011;22475;51.390;7.180;2023-11-21T02:52:26;10.90;;;5.68;;
36449;SDS011;22475;51.390;7.180;2023-11-21T02:54:53;10.43;;;5.43;;
36449;SDS011;22475;51.390;7.180;2023-11-21T02:57:21;13.65;;;6.22;;
36449;SDS011;22475;51.390;7.180;2023-11-21T02:59:48;11.27;;;6.40;;
36449;SDS011;22475;51.390;7.180;2023-11-21T03:02:15;8.63;;;5.75;;
36449;SDS011;22475;51.390;7.180;2023-11-21T03:04:42;13.82;;;6.57;;
36449;SDS011;22475;51.390;7.180;2023-11-21T03:07:09;8.88;;;6.25;;
36449;SDS011;22475;51.390;7.180;2023-11-21T03:09:36;11.88;;;5.65;;
36449;SDS011;22475;51.390;7.180;2023-11-21T03:12:03;8.93;;;6.68;;
36449;SDS011;22475;51.390;7.180;2023-11-21T03:14:31;17.65;;;6.63;;
36449;SDS011;22475;51.390;7.180;2023-11-21T03:16:58;14.35;;;7.65;;
36449;SDS011;22475;51.390;7.180;2023-11-21T03:19:25;17.08;;;5.85;;
36449;SDS011;22475;51.390;7.180;2023-11-21T03:21:52;15.35;;;5.53;;
36449;SDS011;22475;51.390;7.180;2023-11-21T03:24:19;10.00;;;5.53;;
36449;SDS011;22475;51.390;7.180;2023-11-21T03:26:47;8.68;;;6.85;;
36449;SDS011;22475;51.390;7.180;2023-11-21T03:29:15;13.38;;;6.00;;
36449;SDS011;22475;51.390;7.180;2023-11-21T03:31:43;18.77;;;6.32;;
36449;SDS011;22475;51.390;7.180;2023-11-21T03:34:14;11.65;;;5.90;;
36449;SDS011;22475;51.390;7.180;2023-11-21T03:36:42;7.40;;;6.13;;
36449;SDS011;22475;51.390;7.180;2023-11-21T03:39:09;10.32;;;5.45;;
36449;SDS011;22475;51.390;7.180;2023-11-21T03:41:36;15.05;;;6.00;;
36449;SDS011;22475;51.390;7.180;2023-11-21T03:44:03;8.90;;;5.43;;
36449;SDS011;22475;51.390;7.180;2023-11-21T03:46:30;6.80;;;5.47;;
36449;SDS011;22475;51.390;7.180;2023-11-21T03:48:58;7.22;;;5.55;;
36449;SDS011;22475;51.390;7.180;2023-11-21T03:51:24;14.48;;;6.28;;
36449;SDS011;22475;51.390;7.180;2023-11-21T03:53:51;16.33;;;5.90;;
36449;SDS011;22475;51.390;7.180;2023-11-21T03:56:18;15.75;;;5.55;;
36449;SDS011;22475;51.390;7.180;2023-11-21T03:58:46;13.90;;;6.50;;
36449;SDS011;22475;51.390;7.180;2023-11-21T04:01:18;15.85;;;6.25;;
36449;SDS011;22475;51.390;7.180;2023-11-21T04:03:46;10.50;;;6.25;;
36449;SDS011;22475;51.390;7.180;2023-11-21T04:06:15;10.10;;;5.15;;
36449;SDS011;22475;51.390;7.180;2023-11-21T04:08:42;11.90;;;5.90;;
36449;SDS011;22475;51.390;7.180;2023-11-21T04:11:09;11.98;;;5.63;;
36449;SDS011;22475;51.390;7.180;2023-11-21T04:13:36;9.35;;;5.53;;
36449;SDS011;22475;51.390;7.180;2023-11-21T04:16:05;20.58;;;6.25;;
36449;SDS011;22475;51.390;7.180;2023-11-21T04:18:33;11.32;;;5.78;;
36449;SDS011;22475;51.390;7.180;2023-11-21T04:20:59;6.90;;;5.00;;
36449;SDS011;22475;51.390;7.180;2023-11-21T04:23:29;12.57;;;6.40;;
36449;SDS011;22475;51.390;7.180;2023-11-21T04:25:56;15.00;;;6.07;;
36449;SDS011;22475;51.390;7.180;2023-11-21T04:28:23;7.00;;;5.28;;
36449;SDS011;22475;51.390;7.180;2023-11-21T04:30:50;14.30;;;6.93;;
36449;SDS011;22475;51.390;7.180;2023-11-21T04:33:17;6.90;;;5.47;;
36449;SDS011;22475;51.390;7.180;2023-11-21T04:35:44;11.27;;;6.75;;
36449;SDS011;22475;51.390;7.180;2023-11-21T04:38:11;9.35;;;6.00;;
36449;SDS011;22475;51.390;7.180;2023-11-21T04:40:39;12.63;;;6.03;;
36449;SDS011;22475;51.390;7.180;2023-11-21T04:43:06;10.95;;;6.25;;
36449;SDS011;22475;51.390;7.180;2023-11-21T04:45:33;7.60;;;6.15;;
36449;SDS011;22475;51.390;7.180;2023-11-21T04:47:59;12.82;;;6.30;;
36449;SDS011;22475;51.390;7.180;2023-11-21T04:50:26;10.68;;;6.70;;
36449;SDS011;22475;51.390;7.180;2023-11-21T04:52:53;11.93;;;7.03;;
36449;SDS011;22475;51.390;7.180;2023-11-21T04:55:20;20.23;;;7.43;;
36449;SDS011;22475;51.390;7.180;2023-11-21T04:57:48;10.80;;;6.10;;
36449;SDS011;22475;51.390;7.180;2023-11-21T05:00:15;17.40;;;6.15;;
36449;SDS011;22475;51.390;7.180;2023-11-21T05:02:42;12.43;;;7.18;;
36449;SDS011;22475;51.390;7.180;2023-11-21T05:05:09;13.20;;;5.50;;
36449;SDS011;22475;51.390;7.180;2023-11-21T05:07:36;16.92;;;6.15;;
36449;SDS011;22475;51.390;7.180;2023-11-21T05:10:04;11.60;;;6.50;;
36449;SDS011;22475;51.390;7.180;2023-11-21T05:12:35;7.10;;;5.38;;
36449;SDS011;22475;51.390;7.180;2023-11-21T05:15:05;19.52;;;7.43;;
36449;SDS011;22475;51.390;7.180;2023-11-21T05:17:34;10.98;;;6.10;;
36449;SDS011;22475;51.390;7.180;2023-11-21T05:20:01;17.15;;;7.05;;
36449;SDS011;22475;51.390;7.180;2023-11-21T05:22:33;12.38;;;5.88;;
36449;SDS011;22475;51.390;7.180;2023-11-21T05:25:00;14.38;;;5.95;;
36449;SDS011;22475;51.390;7.180;2023-11-21T05:27:28;11.85;;;6.43;;
36449;SDS011;22475;51.390;7.180;2023-11-21T05:29:55;9.75;;;6.03;;
36449;SDS011;22475;51.390;7.180;2023-11-21T05:32:23;12.00;;;5.97;;
36449;SDS011;22475;51.390;7.180;2023-11-21T05:34:50;13.07;;;6.78;;
36449;SDS011;22475;51.390;7.180;2023-11-21T05:37:17;16.60;;;6.95;;
36449;SDS011;22475;51.390;7.180;2023-11-21T05:39:44;12.20;;;6.30;;
36449;SDS011;22475;51.390;7.180;2023-11-21T05:42:12;10.15;;;6.25;;
36449;SDS011;22475;51.390;7.180;2023-11-21T05:44:41;14.98;;;8.27;;
36449;SDS011;22475;51.390;7.180;2023-11-21T05:47:09;23.55;;;7.45;;
36449;SDS011;22475;51.390;7.180;2023-11-21T05:49:37;11.27;;;6.78;;
36449;SDS011;22475;51.390;7.180;2023-11-21T05:52:04;20.08;;;7.30;;
36449;SDS011;22475;51.390;7.180;2023-11-21T05:54:31;19.00;;;7.82;;
36449;SDS011;22475;51.390;7.180;2023-11-21T05:56:58;20.50;;;7.00;;
36449;SDS011;22475;51.390;7.180;2023-11-21T05:59:25;14.10;;;7.10;;
36449;SDS011;22475;51.390;7.180;2023-11-21T06:01:52;15.77;;;7.40;;
36449;SDS011;22475;51.390;7.180;2023-11-21T06:04:19;12.90;;;7.22;;
36449;SDS011;22475;51.390;7.180;2023-11-21T06:06:50;27.58;;;7.82;;
36449;SDS011;22475;51.390;7.180;2023-11-21T06:09:17;11.43;;;7.30;;
36449;SDS011;22475;51.390;7.180;2023-11-21T06:11:44;15.13;;;7.47;;
36449;SDS011;22475;51.390;7.180;2023-11-21T06:14:10;14.27;;;7.32;;
36449;SDS011;22475;51.390;7.180;2023-11-21T06:16:37;12.02;;;6.80;;
36449;SDS011;22475;51.390;7.180;2023-11-21T06:19:05;15.57;;;8.02;;
36449;SDS011;22475;51.390;7.180;2023-11-21T06:21:32;11.52;;;6.35;;
36449;SDS011;22475;51.390;7.180;2023-11-21T06:24:00;10.52;;;6.45;;
36449;SDS011;22475;51.390;7.180;2023-11-21T06:26:27;9.98;;;6.43;;
36449;SDS011;22475;51.390;7.180;2023-11-21T06:28:54;11.65;;;6.57;;
36449;SDS011;22475;51.390;7.180;2023-11-21T06:31:22;11.35;;;6.88;;
36449;SDS011;22475;51.390;7.180;2023-11-21T06:33:48;10.95;;;6.75;;
36449;SDS011;22475;51.390;7.180;2023-11-21T06:36:17;9.25;;;6.43;;
36449;SDS011;22475;51.390;7.180;2023-11-21T06:38:43;12.75;;;7.97;;
36449;SDS011;22475;51.390;7.180;2023-11-21T06:41:12;22.33;;;10.40;;
36449;SDS011;22475;51.390;7.180;2023-11-21T06:43:40;13.85;;;8.38;;
36449;SDS011;22475;51.390;7.180;2023-11-21T06:46:10;14.63;;;7.97;;
36449;SDS011;22475;51.390;7.180;2023-11-21T06:48:39;19.15;;;8.80;;
36449;SDS011;22475;51.390;7.180;2023-11-21T06:51:06;18.05;;;9.15;;
36449;SDS011;22475;51.390;7.180;2023-11-21T06:53:33;24.73;;;10.02;;
36449;SDS011;22475;51.390;7.180;2023-11-21T06:56:00;16.05;;;8.35;;
36449;SDS011;22475;51.390;7.180;2023-11-21T06:58:28;16.67;;;9.10;;
36449;SDS011;22475;51.390;7.180;2023-11-21T07:00:55;19.15;;;7.50;;
36449;SDS011;22475;51.390;7.180;2023-11-21T07:03:23;15.10;;;7.03;;
36449;SDS011;22475;51.390;7.180;2023-11-21T07:05:51;14.88;;;7.70;;
36449;SDS011;22475;51.390;7.180;2023-11-21T07:08:18;19.25;;;8.60;;
36449;SDS011;22475;51.390;7.180;2023-11-21T07:10:44;13.93;;;7.82;;
36449;SDS011;22475;51.390;7.180;2023-11-21T07:13:12;14.73;;;8.55;;
36449;SDS011;22475;51.390;7.180;2023-11-21T07:15:40;9.43;;;6.43;;
36449;SDS011;22475;51.390;7.180;2023-11-21T07:18:07;11.60;;;8.15;;
36449;SDS011;22475;51.390;7.180;2023-11-21T07:20:33;10.93;;;6.75;;
36449;SDS011;22475;51.390;7.180;2023-11-21T07:23:00;18.33;;;7.55;;
36449;SDS011;22475;51.390;7.180;2023-11-21T07:25:28;13.93;;;7.57;;
36449;SDS011;22475;51.390;7.180;2023-11-21T07:27:55;17.30;;;8.30;;
36449;SDS011;22475;51.390;7.180;2023-11-21T07:30:22;21.05;;;9.80;;
36449;SDS011;22475;51.390;7.180;2023-11-21T07:32:50;17.08;;;9.25;;
36449;SDS011;22475;51.390;7.180;2023-11-21T07:35:17;15.52;;;9.20;;
36449;SDS011;22475;51.390;7.180;2023-11-21T07:37:43;14.57;;;8.63;;
36449;SDS011;22475;51.390;7.180;2023-11-21T07:40:12;14.43;;;8.93;;
36449;SDS011;22475;51.390;7.180;2023-11-21T07:42:39;21.15;;;9.25;;
36449;SDS011;22475;51.390;7.180;2023-11-21T07:45:08;20.20;;;9.10;;
36449;SDS011;22475;51.390;7.180;2023-11-21T07:47:35;15.13;;;9.90;;
36449;SDS011;22475;51.390;7.180;2023-11-21T07:50:03;41.30;;;18.15;;
36449;SDS011;22475;51.390;7.180;2023-11-21T07:52:32;31.48;;;14.55;;
36449;SDS011;22475;51.390;7.180;2023-11-21T07:54:59;29.52;;;13.15;;
36449;SDS011;22475;51.390;7.180;2023-11-21T07:57:26;22.27;;;12.00;;
36449;SDS011;22475;51.390;7.180;2023-11-21T07:59:53;22.67;;;11.38;;
36449;SDS011;22475;51.390;7.180;2023-11-21T08:02:20;15.68;;;10.05;;
36449;SDS011;22475;51.390;7.180;2023-11-21T08:04:47;19.20;;;8.48;;
36449;SDS011;22475;51.390;7.180;2023-11-21T08:07:16;20.30;;;10.90;;
36449;SDS011;22475;51.390;7.180;2023-11-21T08:09:43;18.58;;;12.45;;
36449;SDS011;22475;51.390;7.180;2023-11-21T08:12:11;29.85;;;11.73;;
36449;SDS011;22475;51.390;7.180;2023-11-21T08:14:38;22.80;;;9.55;;
36449;SDS011;22475;51.390;7.180;2023-11-21T08:17:05;21.08;;;10.68;;
36449;SDS011;22475;51.390;7.180;2023-11-21T08:19:34;17.23;;;8.77;;
36449;SDS011;22475;51.390;7.180;2023-11-21T08:22:02;24.08;;;10.25;;
36449;SDS011;22475;51.390;7.180;2023-11-21T08:24:30;23.55;;;10.35;;
36449;SDS011;22475;51.390;7.180;2023-11-21T08:26:57;20.15;;;10.00;;
36449;SDS011;22475;51.390;7.180;2023-11-21T08:29:23;19.02;;;10.88;;
36449;SDS011;22475;51.390;7.180;2023-11-21T08:31:50;21.13;;;10.32;;
36449;SDS011;22475;51.390;7.180;2023-11-21T08:34:17;31.50;;;11.63;;
36449;SDS011;22475;51.390;7.180;2023-11-21T08:36:44;27.73;;;11.75;;
36449;SDS011;22475;51.390;7.180;2023-11-21T08:39:11;19.52;;;10.82;;
36449;SDS011;22475;51.390;7.180;2023-11-21T08:41:39;25.65;;;11.10;;
36449;SDS011;22475;51.390;7.180;2023-11-21T08:44:06;25.42;;;10.73;;
36449;SDS011;22475;51.390;7.180;2023-11-21T08:46:33;26.05;;;11.57;;
36449;SDS011;22475;51.390;7.180;2023-11-21T08:49:01;23.48;;;11.90;;
36449;SDS011;22475;51.390;7.180;2023-11-21T08:51:28;20.52;;;12.43;;
36449;SDS011;22475;51.390;7.180;2023-11-21T08:53:55;29.20;;;12.50;;
36449;SDS011;22475;51.390;7.180;2023-11-21T08:56:24;28.45;;;11.10;;
36449;SDS011;22475;51.390;7.180;2023-11-21T08:58:52;22.58;;;10.48;;
36449;SDS011;22475;51.390;7.180;2023-11-21T09:01:19;32.13;;;13.23;;
36449;SDS011;22475;51.390;7.180;2023-11-21T09:03:46;35.25;;;14.32;;
36449;SDS011;22475;51.390;7.180;2023-11-21T09:06:15;33.03;;;14.30;;
36449;SDS011;22475;51.390;7.180;2023-11-21T09:08:41;38.78;;;13.68;;
36449;SDS011;22475;51.390;7.180;2023-11-21T09:11:08;30.95;;;14.70;;
36449;SDS011;22475;51.390;7.180;2023-11-21T09:13:35;35.63;;;16.13;;
36449;SDS011;22475;51.390;7.180;2023-11-21T09:16:04;44.22;;;17.67;;
36449;SDS011;22475;51.390;7.180;2023-11-21T09:18:31;37.45;;;17.40;;
36449;SDS011;22475;51.390;7.180;2023-11-21T09:20:59;46.10;;;18.65;;
36449;SDS011;22475;51.390;7.180;2023-11-21T09:23:26;43.92;;;18.02;;
36449;SDS011;22475;51.390;7.180;2023-11-21T09:25:52;46.90;;;18.40;;
36449;SDS011;22475;51.390;7.180;2023-11-21T09:28:22;55.65;;;19.55;;
36449;SDS011;22475;51.390;7.180;2023-11-21T09:30:48;47.25;;;19.10;;
36449;SDS011;22475;51.390;7.180;2023-11-21T09:33:17;46.05;;;18.67;;
36449;SDS011;22475;51.390;7.180;2023-11-21T09:35:44;47.40;;;20.00;;
36449;SDS011;22475;51.390;7.180;2023-11-21T09:38:10;54.78;;;22.35;;
36449;SDS011;22475;51.390;7.180;2023-11-21T09:40:37;56.22;;;18.98;;
36449;SDS011;22475;51.390;7.180;2023-11-21T09:43:05;56.00;;;20.55;;
36449;SDS011;22475;51.390;7.180;2023-11-21T09:45:35;46.60;;;20.73;;
36449;SDS011;22475;51.390;7.180;2023-11-21T09:48:01;47.88;;;20.67;;
36449;SDS011;22475;51.390;7.180;2023-11-21T09:50:30;45.22;;;20.60;;
36449;SDS011;22475;51.390;7.180;2023-11-21T09:53:02;48.92;;;20.05;;
36449;SDS011;22475;51.390;7.180;2023-11-21T09:55:39;48.65;;;19.58;;
36449;SDS011;22475;51.390;7.180;2023-11-21T09:58:09;51.97;;;19.00;;
36449;SDS011;22475;51.390;7.180;2023-11-21T10:00:38;56.88;;;21.05;;
36449;SDS011;22475;51.390;7.180;2023-11-21T10:03:07;50.72;;;21.77;;
36449;SDS011;22475;51.390;7.180;2023-11-21T10:05:35;52.80;;;18.17;;
36449;SDS011;22475;51.390;7.180;2023-11-21T10:08:03;48.25;;;18.80;;
36449;SDS011;22475;51.390;7.180;2023-11-21T10:10:34;48.10;;;20.77;;
36449;SDS011;22475;51.390;7.180;2023-11-21T10:13:02;49.30;;;20.35;;
36449;SDS011;22475;51.390;7.180;2023-11-21T10:15:33;51.60;;;21.45;;
36449;SDS011;22475;51.390;7.180;2023-11-21T10:18:01;56.97;;;20.88;;
36449;SDS011;22475;51.390;7.180;2023-11-21T10:20:31;54.20;;;22.98;;
36449;SDS011;22475;51.390;7.180;2023-11-21T10:23:00;58.83;;;22.50;;
36449;SDS011;22475;51.390;7.180;2023-11-21T10:25:28;54.47;;;22.85;;
36449;SDS011;22475;51.390;7.180;2023-11-21T10:27:57;54.53;;;21.45;;
36449;SDS011;22475;51.390;7.180;2023-11-21T10:30:27;54.95;;;22.02;;
36449;SDS011;22475;51.390;7.180;2023-11-21T10:32:58;59.75;;;23.23;;
36449;SDS011;22475;51.390;7.180;2023-11-21T10:35:38;49.75;;;21.05;;
36449;SDS011;22475;51.390;7.180;2023-11-21T10:38:07;52.95;;;22.67;;
36449;SDS011;22475;51.390;7.180;2023-11-21T10:40:37;56.60;;;22.23;;
36449;SDS011;22475;51.390;7.180;2023-11-21T10:43:07;56.63;;;22.77;;
36449;SDS011;22475;51.390;7.180;2023-11-21T10:45:34;53.88;;;19.70;;
36449;SDS011;22475;51.390;7.180;2023-11-21T10:48:04;52.13;;;21.35;;
36449;SDS011;22475;51.390;7.180;2023-11-21T10:50:32;47.63;;;19.92;;
36449;SDS011;22475;51.390;7.180;2023-11-21T10:53:00;56.75;;;21.15;;
36449;SDS011;22475;51.390;7.180;2023-11-21T10:55:30;67.35;;;25.60;;
36449;SDS011;22475;51.390;7.180;2023-11-21T10:57:58;62.38;;;22.15;;
36449;SDS011;22475;51.390;7.180;2023-11-21T11:00:28;72.35;;;25.40;;
36449;SDS011;22475;51.390;7.180;2023-11-21T11:02:55;63.42;;;25.40;;
36449;SDS011;22475;51.390;7.180;2023-11-21T11:05:24;64.07;;;24.05;;
36449;SDS011;22475;51.390;7.180;2023-11-21T11:07:52;66.97;;;24.80;;
36449;SDS011;22475;51.390;7.180;2023-11-21T11:10:25;67.60;;;24.52;;
36449;SDS011;22475;51.390;7.180;2023-11-21T11:12:53;65.38;;;24.33;;
36449;SDS011;22475;51.390;7.180;2023-11-21T11:15:22;70.70;;;26.90;;
36449;SDS011;22475;51.390;7.180;2023-11-21T11:17:49;79.40;;;29.75;;
36449;SDS011;22475;51.390;7.180;2023-11-21T11:20:16;74.93;;;25.30;;
36449;SDS011;22475;51.390;7.180;2023-11-21T11:22:48;69.50;;;24.67;;
36449;SDS011;22475;51.390;7.180;2023-11-21T11:25:30;69.25;;;25.95;;
36449;SDS011;22475;51.390;7.180;2023-11-21T11:28:14;67.03;;;25.80;;
36449;SDS011;22475;51.390;7.180;2023-11-21T11:30:48;71.32;;;25.20;;
36449;SDS011;22475;51.390;7.180;2023-11-21T11:33:25;65.80;;;24.98;;
36449;SDS011;22475;51.390;7.180;2023-11-21T11:36:00;73.43;;;28.70;;
36449;SDS011;22475;51.390;7.180;2023-11-21T11:38:31;83.32;;;28.02;;
36449;SDS011;22475;51.390;7.180;2023-11-21T11:41:01;66.15;;;24.20;;
36449;SDS011;22475;51.390;7.180;2023-11-21T11:43:31;72.97;;;25.65;;
36449;SDS011;22475;51.390;7.180;2023-11-21T11:46:05;74.22;;;25.83;;
36449;SDS011;22475;51.390;7.180;2023-11-21T11:48:34;72.22;;;24.98;;
36449;SDS011;22475;51.390;7.180;2023-11-21T11:51:03;71.70;;;25.92;;
36449;SDS011;22475;51.390;7.180;2023-11-21T11:58:52;83.35;;;26.83;;
36449;SDS011;22475;51.390;7.180;2023-11-21T12:01:20;75.38;;;25.17;;
36449;SDS011;22475;51.390;7.180;2023-11-21T12:06:55;70.07;;;24.05;;
36449;SDS011;22475;51.390;7.180;2023-11-21T12:09:24;73.60;;;27.17;;
36449;SDS011;22475;51.390;7.180;2023-11-21T12:11:51;75.80;;;25.73;;
36449;SDS011;22475;51.390;7.180;2023-11-21T12:14:21;73.00;;;24.75;;
36449;SDS011;22475;51.390;7.180;2023-11-21T12:16:48;70.05;;;24.13;;
36449;SDS011;22475;51.390;7.180;2023-11-21T12:19:16;72.82;;;24.33;;
36449;SDS011;22475;51.390;7.180;2023-11-21T12:21:43;78.38;;;27.67;;
36449;SDS011;22475;51.390;7.180;2023-11-21T12:24:10;78.22;;;27.38;;
36449;SDS011;22475;51.390;7.180;2023-11-21T12:26:38;82.07;;;24.00;;
36449;SDS011;22475;51.390;7.180;2023-11-21T12:29:05;74.68;;;25.08;;
36449;SDS011;22475;51.390;7.180;2023-11-21T12:31:34;68.22;;;22.75;;
36449;SDS011;22475;51.390;7.180;2023-11-21T12:34:01;83.80;;;28.75;;
36449;SDS011;22475;51.390;7.180;2023-11-21T12:36:28;71.53;;;23.30;;
36449;SDS011;22475;51.390;7.180;2023-11-21T12:38:55;62.47;;;24.35;;
36449;SDS011;22475;51.390;7.180;2023-11-21T12:41:22;96.22;;;27.17;;
36449;SDS011;22475;51.390;7.180;2023-11-21T12:43:49;67.55;;;25.25;;
36449;SDS011;22475;51.390;7.180;2023-11-21T12:46:16;66.72;;;24.65;;
36449;SDS011;22475;51.390;7.180;2023-11-21T12:48:44;68.13;;;27.67;;
36449;SDS011;22475;51.390;7.180;2023-11-21T12:51:11;61.55;;;25.50;;
36449;SDS011;22475;51.390;7.180;2023-11-21T12:53:41;72.60;;;26.38;;
36449;SDS011;22475;51.390;7.180;2023-11-21T12:56:09;59.85;;;26.58;;
36449;SDS011;22475;51.390;7.180;2023-11-21T12:58:37;68.00;;;27.70;;
36449;SDS011;22475;51.390;7.180;2023-11-21T13:01:05;59.00;;;28.33;;
36449;SDS011;22475;51.390;7.180;2023-11-21T13:03:37;54.83;;;25.15;;
36449;SDS011;22475;51.390;7.180;2023-11-21T13:06:06;58.47;;;24.33;;
36449;SDS011;22475;51.390;7.180;2023-11-21T13:08:33;43.13;;;21.02;;
36449;SDS011;22475;51.390;7.180;2023-11-21T13:11:04;46.60;;;18.67;;
36449;SDS011;22475;51.390;7.180;2023-11-21T13:13:32;40.63;;;19.05;;
36449;SDS011;22475;51.390;7.180;2023-11-21T13:15:59;30.05;;;16.55;;
36449;SDS011;22475;51.390;7.180;2023-11-21T13:18:29;37.50;;;17.55;;
36449;SDS011;22475;51.390;7.180;2023-11-21T13:20:57;31.25;;;16.40;;
36449;SDS011;22475;51.390;7.180;2023-11-21T13:23:26;32.47;;;17.05;;
36449;SDS011;22475;51.390;7.180;2023-11-21T13:25:54;28.90;;;14.57;;
36449;SDS011;22475;51.390;7.180;2023-11-21T13:28:21;21.52;;;12.52;;
36449;SDS011;22475;51.390;7.180;2023-11-21T13:30:49;22.48;;;11.77;;
36449;SDS011;22475;51.390;7.180;2023-11-21T13:33:17;18.88;;;10.65;;
36449;SDS011;22475;51.390;7.180;2023-11-21T13:35:47;13.88;;;9.63;;
36449;SDS011;22475;51.390;7.180;2023-11-21T13:38:16;20.88;;;8.90;;
36449;SDS011;22475;51.390;7.180;2023-11-21T13:40:49;16.15;;;8.40;;
36449;SDS011;22475;51.390;7.180;2023-11-21T13:43:18;12.52;;;8.57;;
36449;SDS011;22475;51.390;7.180;2023-11-21T13:45:47;13.07;;;8.95;;
36449;SDS011;22475;51.390;7.180;2023-11-21T13:48:17;13.02;;;8.30;;
36449;SDS011;22475;51.390;7.180;2023-11-21T13:50:53;14.95;;;8.80;;
36449;SDS011;22475;51.390;7.180;2023-11-21T13:53:23;17.55;;;9.77;;
36449;SDS011;22475;51.390;7.180;2023-11-21T13:55:52;15.13;;;9.60;;
36449;SDS011;22475;51.390;7.180;2023-11-21T13:58:22;16.70;;;10.40;;
36449;SDS011;22475;51.390;7.180;2023-11-21T14:00:59;14.63;;;9.80;;
36449;SDS011;22475;51.390;7.180;2023-11-21T14:03:26;12.30;;;8.02;;
36449;SDS011;22475;51.390;7.180;2023-11-21T14:06:04;17.38;;;9.20;;
36449;SDS011;22475;51.390;7.180;2023-11-21T14:08:39;16.42;;;10.40;;
36449;SDS011;22475;51.390;7.180;2023-11-21T14:11:07;18.70;;;10.95;;
36449;SDS011;22475;51.390;7.180;2023-11-21T14:13:36;16.55;;;10.50;;
36449;SDS011;22475;51.390;7.180;2023-11-21T14:16:03;23.02;;;12.32;;
36449;SDS011;22475;51.390;7.180;2023-11-21T14:18:31;19.30;;;10.85;;
36449;SDS011;22475;51.390;7.180;2023-11-21T14:21:03;20.40;;;10.70;;
36449;SDS011;22475;51.390;7.180;2023-11-21T14:23:30;19.05;;;10.43;;
36449;SDS011;22475;51.390;7.180;2023-11-21T14:26:00;16.83;;;10.07;;
36449;SDS011;22475;51.390;7.180;2023-11-21T14:28:29;17.20;;;10.15;;
36449;SDS011;22475;51.390;7.180;2023-11-21T14:30:55;18.77;;;10.57;;
36449;SDS011;22475;51.390;7.180;2023-11-21T14:33:22;18.25;;;11.75;;
36449;SDS011;22475;51.390;7.180;2023-11-21T14:35:49;21.35;;;10.80;;
36449;SDS011;22475;51.390;7.180;2023-11-21T14:38:15;18.60;;;11.43;;
36449;SDS011;22475;51.390;7.180;2023-11-21T14:40:43;25.98;;;11.98;;
36449;SDS011;22475;51.390;7.180;2023-11-21T14:43:10;19.38;;;11.02;;